Hovedside
METAR-TAF:

METAR-TAF

Lufthavner :

Kramfors, Sverige

Kramfors lufthavn

breddegrad: 63-03N, lengdegrad: 017-46E, høyde over havet: 10 m

Gjeldene værobservasjon

Denne rapporten ble laget for 26 minutter siden, klokken 13:20 UTC
Vind 5 kt fra Nord-nordvest
Temperatur -13°C
Luftfuktighet 72%
Trykk 1046 hPa
Sikt 10 km eller mer

METAR: ESNK 251320Z AUTO 34005KT 9999 NCD M13/M17 Q1046

Tid: 14:46 (13:46 UTC)

Varsel

Denne rapporten ble laget for 16 minutter siden, klokken 13:30 UTC
Varsel gyldig fra 25. klokken 14 UTC til 25. klokken 20 UTC
Vind 5 kt fra Nordvest
Sikt 10 km eller mer
ingen skyer under 1500 m og ingen bygeskyer

TAF: ESNK 251330Z 2514/2520 31005KT CAVOK

Værobservasjoner og værvarsel for over 4000 flyplasser (METAR- og TAF-rapporter).

Tilgjengelige stasjoner er representert av de røde og gule prikkene på kartet.

Hold musepekeren over prikken for å se navnet på stasjonen.

Klikk så for å se værobservasjoner og -varsler.

For å forandre kartet kan du klikke på den grønne knappen med svart kryss for å zoome inn, på den grønne knappen med strek for å zoome ut, eller på de grønne pilene for å se tilstøtende kart.


METAR-TAF: